DAL8877 KPHX-KLAS
Flight info
| Callsign | DAL8877 |
|---|---|
| Flight time | 0h 42m |
| Altitude | 28000 |
| Route | ZEPER2 RRSTA ELLDA RKSTR4 |
| Aircraft | B752/M-SDE2E3FGHIJ3J4J7RWXY/LB1 |
Departure
| Time | 2026-05-06 15:41 |
|---|---|
| Airport | Phoenix Sky Harbor International Airport (KPHX) |
Arrival
| Time | 2026-05-06 16:24 |
|---|---|
| Airport | Harry Reid International Airport (KLAS) |
| Time | Latitude | Longitude | Altitude | Speed | Heading |
|---|---|---|---|---|---|
| 2026-05-06 13:47 | 33.43349 | -112.00942 | 1143 ft | 0 kts | 111° |
| 2026-05-06 15:26 | 33.43350 | -112.00944 | 1143 ft | 2 kts | 110° |
| 2026-05-06 15:26 | 33.43354 | -112.00962 | 1143 ft | 2 kts | 105° |
| 2026-05-06 15:26 | 33.43359 | -112.00979 | 1143 ft | 2 kts | 107° |
| 2026-05-06 15:27 | 33.43363 | -112.00996 | 1143 ft | 2 kts | 106° |
| 2026-05-06 15:27 | 33.43367 | -112.01008 | 1143 ft | 1 kts | 148° |
| 2026-05-06 15:27 | 33.43373 | -112.01010 | 1143 ft | 0 kts | 185° |
| 2026-05-06 15:27 | 33.43378 | -112.01010 | 1143 ft | 0 kts | 180° |
| 2026-05-06 15:35 | 33.43375 | -112.01010 | 1143 ft | 2 kts | 180° |
| 2026-05-06 15:35 | 33.43348 | -112.01010 | 1143 ft | 5 kts | 181° |
| 2026-05-06 15:35 | 33.43307 | -112.01011 | 1143 ft | 6 kts | 176° |
| 2026-05-06 15:35 | 33.43263 | -112.01003 | 1143 ft | 6 kts | 166° |
| 2026-05-06 15:36 | 33.43222 | -112.00974 | 1143 ft | 7 kts | 127° |
| 2026-05-06 15:36 | 33.43214 | -112.00901 | 1143 ft | 11 kts | 89° |
| 2026-05-06 15:36 | 33.43214 | -112.00790 | 1143 ft | 15 kts | 90° |
| 2026-05-06 15:36 | 33.43213 | -112.00645 | 1143 ft | 19 kts | 91° |
| 2026-05-06 15:37 | 33.43212 | -112.00467 | 1143 ft | 23 kts | 88° |
| 2026-05-06 15:37 | 33.43214 | -112.00260 | 1143 ft | 25 kts | 90° |
| 2026-05-06 15:37 | 33.43213 | -112.00047 | 1143 ft | 25 kts | 90° |
| 2026-05-06 15:37 | 33.43213 | -111.99842 | 1143 ft | 24 kts | 90° |
| 2026-05-06 15:38 | 33.43213 | -111.99657 | 1143 ft | 19 kts | 91° |
| 2026-05-06 15:38 | 33.43213 | -111.99509 | 1143 ft | 17 kts | 90° |
| 2026-05-06 15:38 | 33.43212 | -111.99391 | 1143 ft | 6 kts | 96° |
| 2026-05-06 15:38 | 33.43208 | -111.99372 | 1143 ft | 0 kts | 116° |
| 2026-05-06 15:40 | 33.43199 | -111.99355 | 1143 ft | 6 kts | 128° |
| 2026-05-06 15:40 | 33.43124 | -111.99343 | 1143 ft | 14 kts | 215° |
| 2026-05-06 15:40 | 33.43103 | -111.99442 | 1143 ft | 14 kts | 269° |
| 2026-05-06 15:40 | 33.43103 | -111.99784 | 1143 ft | 75 kts | 271° |
| 2026-05-06 15:41 | 33.43102 | -112.00712 | 1144 ft | 144 kts | 270° |
| 2026-05-06 15:41 | 33.43116 | -112.02069 | 1444 ft | 177 kts | 270° |
| 2026-05-06 15:41 | 33.43144 | -112.03518 | 2409 ft | 173 kts | 272° |
| 2026-05-06 15:41 | 33.43162 | -112.04925 | 2891 ft | 179 kts | 271° |
| 2026-05-06 15:42 | 33.43179 | -112.06484 | 3157 ft | 195 kts | 272° |
| 2026-05-06 15:42 | 33.43218 | -112.08187 | 3421 ft | 216 kts | 273° |
| 2026-05-06 15:42 | 33.43269 | -112.10067 | 3956 ft | 226 kts | 273° |
| 2026-05-06 15:42 | 33.43320 | -112.11948 | 4649 ft | 229 kts | 273° |
| 2026-05-06 15:43 | 33.43374 | -112.13876 | 5229 ft | 239 kts | 272° |
| 2026-05-06 15:43 | 33.43450 | -112.15945 | 5760 ft | 253 kts | 279° |
| 2026-05-06 15:43 | 33.44071 | -112.17878 | 6530 ft | 253 kts | 309° |
| 2026-05-06 15:43 | 33.45442 | -112.19156 | 7308 ft | 253 kts | 340° |
| 2026-05-06 15:44 | 33.47169 | -112.19490 | 8059 ft | 255 kts | 359° |
| 2026-05-06 15:44 | 33.48933 | -112.19527 | 8893 ft | 255 kts | 359° |
| 2026-05-06 15:44 | 33.50734 | -112.19556 | 9671 ft | 258 kts | 359° |
| 2026-05-06 15:44 | 33.52530 | -112.19560 | 10445 ft | 260 kts | 359° |
| 2026-05-06 15:45 | 33.54411 | -112.19680 | 10824 ft | 279 kts | 355° |
| 2026-05-06 15:45 | 33.56403 | -112.19880 | 11200 ft | 298 kts | 355° |
| 2026-05-06 15:45 | 33.58543 | -112.20077 | 11553 ft | 317 kts | 356° |
| 2026-05-06 15:45 | 33.60784 | -112.20280 | 12065 ft | 330 kts | 356° |
| 2026-05-06 15:46 | 33.63029 | -112.20616 | 12861 ft | 332 kts | 347° |
| 2026-05-06 15:46 | 33.65290 | -112.21338 | 13567 ft | 337 kts | 345° |
| 2026-05-06 15:46 | 33.67532 | -112.22049 | 14333 ft | 339 kts | 346° |
| 2026-05-06 15:46 | 33.69844 | -112.22788 | 15044 ft | 343 kts | 346° |
| 2026-05-06 15:47 | 33.72153 | -112.23530 | 15712 ft | 347 kts | 346° |
| 2026-05-06 15:47 | 33.74518 | -112.24290 | 16382 ft | 351 kts | 346° |
| 2026-05-06 15:47 | 33.76856 | -112.25043 | 17026 ft | 354 kts | 346° |
| 2026-05-06 15:47 | 33.79261 | -112.25820 | 17669 ft | 357 kts | 346° |
| 2026-05-06 15:48 | 33.81654 | -112.26592 | 18258 ft | 360 kts | 346° |
| 2026-05-06 15:48 | 33.83987 | -112.27347 | 18875 ft | 362 kts | 347° |
| 2026-05-06 15:48 | 33.86411 | -112.28131 | 19561 ft | 363 kts | 347° |
| 2026-05-06 15:48 | 33.88839 | -112.28916 | 20129 ft | 367 kts | 347° |
| 2026-05-06 15:49 | 33.91341 | -112.29726 | 20748 ft | 370 kts | 347° |
| 2026-05-06 15:49 | 33.93852 | -112.30539 | 21345 ft | 372 kts | 347° |
| 2026-05-06 15:49 | 33.96364 | -112.31354 | 21938 ft | 374 kts | 348° |
| 2026-05-06 15:49 | 33.98931 | -112.32187 | 22528 ft | 377 kts | 348° |
| 2026-05-06 15:50 | 34.01438 | -112.33064 | 23033 ft | 382 kts | 342° |
| 2026-05-06 15:50 | 34.03867 | -112.34529 | 23588 ft | 388 kts | 330° |
| 2026-05-06 15:50 | 34.06028 | -112.36527 | 24078 ft | 395 kts | 322° |
| 2026-05-06 15:50 | 34.08114 | -112.38705 | 24558 ft | 398 kts | 323° |
| 2026-05-06 15:51 | 34.10265 | -112.40901 | 25009 ft | 402 kts | 323° |
| 2026-05-06 15:51 | 34.12420 | -112.43090 | 25499 ft | 404 kts | 324° |
| 2026-05-06 15:51 | 34.14575 | -112.45271 | 26035 ft | 405 kts | 324° |
| 2026-05-06 15:51 | 34.16775 | -112.47492 | 26439 ft | 409 kts | 324° |
| 2026-05-06 15:52 | 34.18950 | -112.49689 | 26920 ft | 411 kts | 324° |
| 2026-05-06 15:52 | 34.21183 | -112.51942 | 27329 ft | 414 kts | 324° |
| 2026-05-06 15:52 | 34.23398 | -112.54180 | 27845 ft | 414 kts | 324° |
| 2026-05-06 15:52 | 34.25631 | -112.56433 | 28127 ft | 418 kts | 324° |
| 2026-05-06 15:53 | 34.27902 | -112.58726 | 28125 ft | 429 kts | 325° |
| 2026-05-06 15:53 | 34.30213 | -112.61061 | 28129 ft | 439 kts | 325° |
| 2026-05-06 15:53 | 34.35049 | -112.65953 | 28128 ft | 459 kts | 324° |
| 2026-05-06 15:54 | 34.40073 | -112.71046 | 28124 ft | 477 kts | 324° |
| 2026-05-06 15:54 | 34.45235 | -112.76290 | 28125 ft | 480 kts | 324° |
| 2026-05-06 15:55 | 34.50392 | -112.81541 | 28131 ft | 481 kts | 324° |
| 2026-05-06 15:55 | 34.55547 | -112.86794 | 28126 ft | 480 kts | 324° |
| 2026-05-06 15:56 | 34.60705 | -112.92059 | 28135 ft | 479 kts | 324° |
| 2026-05-06 15:56 | 34.65810 | -112.97281 | 28137 ft | 476 kts | 324° |
| 2026-05-06 15:57 | 34.70933 | -113.02526 | 28142 ft | 478 kts | 325° |
| 2026-05-06 15:57 | 34.76047 | -113.07857 | 28136 ft | 482 kts | 320° |
| 2026-05-06 15:58 | 34.80740 | -113.13800 | 28142 ft | 482 kts | 319° |
| 2026-05-06 15:58 | 34.85399 | -113.19733 | 28153 ft | 484 kts | 319° |
| 2026-05-06 15:59 | 34.90051 | -113.25668 | 28149 ft | 481 kts | 319° |
| 2026-05-06 15:59 | 34.94680 | -113.31578 | 28143 ft | 481 kts | 319° |
| 2026-05-06 16:00 | 34.99354 | -113.37484 | 28146 ft | 480 kts | 322° |
| 2026-05-06 16:00 | 35.04471 | -113.42671 | 28149 ft | 475 kts | 326° |
| 2026-05-06 16:01 | 35.07046 | -113.45251 | 27821 ft | 484 kts | 326° |
| 2026-05-06 16:01 | 35.09647 | -113.47867 | 27625 ft | 469 kts | 326° |
| 2026-05-06 16:01 | 35.12059 | -113.50304 | 27516 ft | 443 kts | 326° |
| 2026-05-06 16:01 | 35.14418 | -113.52690 | 27300 ft | 421 kts | 326° |
| 2026-05-06 16:02 | 35.16603 | -113.54896 | 27149 ft | 399 kts | 326° |
| 2026-05-06 16:02 | 35.18705 | -113.57021 | 26962 ft | 380 kts | 327° |
| 2026-05-06 16:02 | 35.20759 | -113.59093 | 26080 ft | 381 kts | 327° |
| 2026-05-06 16:02 | 35.22823 | -113.61172 | 25433 ft | 374 kts | 326° |
| 2026-05-06 16:03 | 35.24823 | -113.63194 | 24680 ft | 374 kts | 326° |
| 2026-05-06 16:03 | 35.26841 | -113.65235 | 24082 ft | 372 kts | 325° |
| 2026-05-06 16:03 | 35.28827 | -113.67251 | 23728 ft | 365 kts | 325° |
| 2026-05-06 16:03 | 35.30806 | -113.69256 | 23002 ft | 367 kts | 325° |
| 2026-05-06 16:04 | 35.32747 | -113.71227 | 22641 ft | 360 kts | 325° |
| 2026-05-06 16:04 | 35.34664 | -113.73175 | 22285 ft | 353 kts | 325° |
| 2026-05-06 16:04 | 35.36568 | -113.75108 | 21944 ft | 351 kts | 324° |
| 2026-05-06 16:04 | 35.38444 | -113.77013 | 21618 ft | 355 kts | 324° |
| 2026-05-06 16:05 | 35.40377 | -113.78978 | 21266 ft | 357 kts | 325° |
| 2026-05-06 16:05 | 35.42274 | -113.80911 | 20910 ft | 355 kts | 324° |
| 2026-05-06 16:05 | 35.44168 | -113.82842 | 20549 ft | 351 kts | 324° |
| 2026-05-06 16:05 | 35.46060 | -113.84769 | 20192 ft | 348 kts | 324° |
| 2026-05-06 16:06 | 35.47916 | -113.86663 | 19848 ft | 347 kts | 324° |
| 2026-05-06 16:06 | 35.49775 | -113.88559 | 19507 ft | 346 kts | 324° |
| 2026-05-06 16:06 | 35.51639 | -113.90462 | 19143 ft | 344 kts | 324° |
| 2026-05-06 16:06 | 35.53469 | -113.92333 | 18804 ft | 343 kts | 324° |
| 2026-05-06 16:07 | 35.55288 | -113.94194 | 18461 ft | 341 kts | 323° |
| 2026-05-06 16:07 | 35.57114 | -113.96062 | 18114 ft | 339 kts | 324° |
| 2026-05-06 16:07 | 35.58934 | -113.97925 | 17775 ft | 338 kts | 324° |
| 2026-05-06 16:07 | 35.60737 | -113.99771 | 17410 ft | 337 kts | 324° |
| 2026-05-06 16:08 | 35.62572 | -114.01651 | 17035 ft | 336 kts | 323° |
| 2026-05-06 16:08 | 35.64346 | -114.03471 | 16682 ft | 334 kts | 323° |
| 2026-05-06 16:08 | 35.66121 | -114.05294 | 16316 ft | 330 kts | 323° |
| 2026-05-06 16:08 | 35.67884 | -114.07104 | 15993 ft | 326 kts | 323° |
| 2026-05-06 16:09 | 35.69633 | -114.08901 | 15691 ft | 324 kts | 323° |
| 2026-05-06 16:09 | 35.71359 | -114.10675 | 15385 ft | 325 kts | 323° |
| 2026-05-06 16:09 | 35.73121 | -114.12486 | 14966 ft | 325 kts | 323° |
| 2026-05-06 16:09 | 35.74830 | -114.14260 | 14886 ft | 310 kts | 320° |
| 2026-05-06 16:10 | 35.76172 | -114.16271 | 14854 ft | 302 kts | 305° |
| 2026-05-06 16:10 | 35.77209 | -114.18514 | 14509 ft | 306 kts | 303° |
| 2026-05-06 16:10 | 35.78263 | -114.20828 | 14147 ft | 307 kts | 302° |
| 2026-05-06 16:10 | 35.79292 | -114.23119 | 13822 ft | 303 kts | 303° |
| 2026-05-06 16:11 | 35.80304 | -114.25391 | 13469 ft | 301 kts | 302° |
| 2026-05-06 16:11 | 35.81318 | -114.27675 | 13128 ft | 298 kts | 302° |
| 2026-05-06 16:11 | 35.82308 | -114.29913 | 12797 ft | 297 kts | 302° |
| 2026-05-06 16:11 | 35.83292 | -114.32141 | 12485 ft | 297 kts | 302° |
| 2026-05-06 16:12 | 35.84382 | -114.34282 | 12154 ft | 293 kts | 311° |
| 2026-05-06 16:12 | 35.85643 | -114.36272 | 11865 ft | 289 kts | 311° |
| 2026-05-06 16:12 | 35.86865 | -114.38229 | 11591 ft | 287 kts | 311° |
| 2026-05-06 16:12 | 35.88096 | -114.40198 | 11323 ft | 287 kts | 311° |
| 2026-05-06 16:13 | 35.89317 | -114.42153 | 11056 ft | 287 kts | 311° |
| 2026-05-06 16:13 | 35.90531 | -114.44098 | 10767 ft | 287 kts | 311° |
| 2026-05-06 16:13 | 35.91770 | -114.46085 | 10440 ft | 285 kts | 311° |
| 2026-05-06 16:13 | 35.92965 | -114.48005 | 10164 ft | 280 kts | 311° |
| 2026-05-06 16:14 | 35.94147 | -114.49905 | 9985 ft | 270 kts | 311° |
| 2026-05-06 16:14 | 35.95282 | -114.51731 | 9759 ft | 266 kts | 311° |
| 2026-05-06 16:14 | 35.96427 | -114.53575 | 9490 ft | 267 kts | 311° |
| 2026-05-06 16:14 | 35.97565 | -114.55420 | 9275 ft | 268 kts | 311° |
| 2026-05-06 16:15 | 35.98687 | -114.57242 | 9050 ft | 267 kts | 310° |
| 2026-05-06 16:15 | 35.99813 | -114.59068 | 8814 ft | 265 kts | 310° |
| 2026-05-06 16:15 | 36.00937 | -114.60893 | 8585 ft | 264 kts | 310° |
| 2026-05-06 16:15 | 36.02056 | -114.62713 | 8356 ft | 264 kts | 310° |
| 2026-05-06 16:16 | 36.03182 | -114.64543 | 8119 ft | 264 kts | 310° |
| 2026-05-06 16:16 | 36.04206 | -114.66432 | 8006 ft | 257 kts | 303° |
| 2026-05-06 16:16 | 36.05112 | -114.68278 | 7996 ft | 243 kts | 304° |
| 2026-05-06 16:16 | 36.05983 | -114.70034 | 7989 ft | 230 kts | 304° |
| 2026-05-06 16:17 | 36.06802 | -114.71699 | 8012 ft | 223 kts | 302° |
| 2026-05-06 16:17 | 36.07256 | -114.73561 | 8023 ft | 237 kts | 277° |
| 2026-05-06 16:17 | 36.07293 | -114.75697 | 7721 ft | 248 kts | 274° |
| 2026-05-06 16:17 | 36.07313 | -114.77785 | 7583 ft | 240 kts | 274° |
| 2026-05-06 16:18 | 36.07324 | -114.79868 | 7197 ft | 242 kts | 272° |
| 2026-05-06 16:18 | 36.07322 | -114.81921 | 6878 ft | 240 kts | 272° |
| 2026-05-06 16:18 | 36.07325 | -114.83985 | 6524 ft | 238 kts | 272° |
| 2026-05-06 16:18 | 36.07328 | -114.85997 | 6193 ft | 226 kts | 272° |
| 2026-05-06 16:19 | 36.07330 | -114.87902 | 5890 ft | 216 kts | 272° |
| 2026-05-06 16:19 | 36.07333 | -114.89724 | 5603 ft | 206 kts | 272° |
| 2026-05-06 16:19 | 36.07338 | -114.91467 | 5326 ft | 198 kts | 272° |
| 2026-05-06 16:19 | 36.07341 | -114.93147 | 5064 ft | 191 kts | 272° |
| 2026-05-06 16:20 | 36.07344 | -114.94731 | 4870 ft | 179 kts | 272° |
| 2026-05-06 16:20 | 36.07348 | -114.96252 | 4634 ft | 176 kts | 271° |
| 2026-05-06 16:20 | 36.07351 | -114.97764 | 4393 ft | 173 kts | 271° |
| 2026-05-06 16:20 | 36.07354 | -114.99249 | 4159 ft | 170 kts | 270° |
| 2026-05-06 16:21 | 36.07356 | -115.00669 | 3929 ft | 164 kts | 270° |
| 2026-05-06 16:21 | 36.07358 | -115.02025 | 3747 ft | 155 kts | 270° |
| 2026-05-06 16:21 | 36.07360 | -115.03361 | 3528 ft | 155 kts | 269° |
| 2026-05-06 16:21 | 36.07361 | -115.04698 | 3323 ft | 156 kts | 269° |
| 2026-05-06 16:22 | 36.07362 | -115.06020 | 3124 ft | 152 kts | 269° |
| 2026-05-06 16:22 | 36.07363 | -115.07264 | 2903 ft | 137 kts | 269° |
| 2026-05-06 16:22 | 36.07364 | -115.08395 | 2722 ft | 130 kts | 269° |
| 2026-05-06 16:22 | 36.07364 | -115.09539 | 2576 ft | 135 kts | 269° |
| 2026-05-06 16:23 | 36.07364 | -115.10705 | 2401 ft | 136 kts | 269° |
| 2026-05-06 16:23 | 36.07365 | -115.11864 | 2222 ft | 134 kts | 269° |
| 2026-05-06 16:23 | 36.07367 | -115.13030 | 2075 ft | 133 kts | 269° |
| 2026-05-06 16:23 | 36.07360 | -115.14059 | 2100 ft | 98 kts | 272° |
| 2026-05-06 16:24 | 36.07356 | -115.14700 | 2118 ft | 67 kts | 272° |
| 2026-05-06 16:24 | 36.07357 | -115.15085 | 2133 ft | 39 kts | 270° |
| 2026-05-06 16:24 | 36.07406 | -115.15368 | 2143 ft | 27 kts | 295° |
| 2026-05-06 16:24 | 36.07471 | -115.15511 | 2147 ft | 15 kts | 300° |
| 2026-05-06 16:25 | 36.07529 | -115.15607 | 2150 ft | 12 kts | 314° |
| 2026-05-06 16:25 | 36.07587 | -115.15679 | 2151 ft | 10 kts | 314° |
| 2026-05-06 16:25 | 36.07630 | -115.15735 | 2153 ft | 8 kts | 314° |
| 2026-05-06 16:25 | 36.07676 | -115.15791 | 2154 ft | 13 kts | 320° |
| 2026-05-06 16:26 | 36.07772 | -115.15823 | 2153 ft | 14 kts | 6° |
| 2026-05-06 16:26 | 36.07810 | -115.15764 | 2150 ft | 10 kts | 94° |
| 2026-05-06 16:26 | 36.07805 | -115.15668 | 2147 ft | 13 kts | 91° |
| 2026-05-06 16:26 | 36.07803 | -115.15536 | 2142 ft | 16 kts | 91° |
| 2026-05-06 16:27 | 36.07801 | -115.15383 | 2136 ft | 19 kts | 89° |
| 2026-05-06 16:27 | 36.07803 | -115.15205 | 2129 ft | 22 kts | 90° |
| 2026-05-06 16:27 | 36.07798 | -115.15014 | 2122 ft | 22 kts | 96° |
| 2026-05-06 16:27 | 36.07783 | -115.14811 | 2115 ft | 23 kts | 95° |
| 2026-05-06 16:28 | 36.07771 | -115.14620 | 2111 ft | 23 kts | 95° |
| 2026-05-06 16:28 | 36.07758 | -115.14410 | 2103 ft | 25 kts | 94° |
| 2026-05-06 16:28 | 36.07754 | -115.14209 | 2098 ft | 19 kts | 74° |
| 2026-05-06 16:28 | 36.07853 | -115.14159 | 2094 ft | 16 kts | 1° |
| 2026-05-06 16:29 | 36.07946 | -115.14157 | 2093 ft | 7 kts | 359° |
| 2026-05-06 16:29 | 36.07968 | -115.14127 | 2091 ft | 6 kts | 72° |
| 2026-05-06 16:29 | 36.07977 | -115.14082 | 2089 ft | 2 kts | 70° |
| 2026-05-06 16:29 | 36.07985 | -115.14060 | 2088 ft | 3 kts | 64° |
| 2026-05-06 16:30 | 36.07990 | -115.14050 | 2088 ft | 0 kts | 63° |